createdAt,value
2023-08-10T00:01:33.494Z,9.00
2023-08-10T00:04:36.159Z,9.50
2023-08-10T00:07:39.131Z,10.00
2023-08-10T00:10:41.512Z,9.25
2023-08-10T00:13:44.544Z,9.25
2023-08-10T00:16:47.061Z,10.00
2023-08-10T00:19:51.057Z,8.25
2023-08-10T00:22:53.766Z,9.25
2023-08-10T00:25:56.660Z,10.00
2023-08-10T00:28:59.181Z,11.25
2023-08-10T00:32:02.109Z,10.00
2023-08-10T00:35:05.123Z,10.00
2023-08-10T00:38:08.187Z,8.00
2023-08-10T00:41:10.856Z,11.50
2023-08-10T00:44:13.588Z,10.00
2023-08-10T00:47:16.539Z,10.50
2023-08-10T00:50:19.517Z,8.25
2023-08-10T00:53:22.798Z,10.00
2023-08-10T00:56:26.490Z,10.00
2023-08-10T00:59:29.149Z,12.25
2023-08-10T01:02:32.220Z,13.25
2023-08-10T01:05:37.186Z,13.00
2023-08-10T01:08:51.027Z,12.75
2023-08-10T01:12:25.686Z,13.00
2023-08-10T01:15:39.335Z,12.50
2023-08-10T01:18:43.437Z,12.50
2023-08-10T01:22:41.643Z,12.00
2023-08-10T01:25:44.316Z,12.25
2023-08-10T01:28:47.302Z,9.75
2023-08-10T01:31:50.153Z,13.00
2023-08-10T01:34:53.778Z,13.00
2023-08-10T01:37:56.222Z,12.25
2023-08-10T01:40:58.948Z,12.75
2023-08-10T01:44:01.476Z,13.00
2023-08-10T01:47:07.967Z,14.00
2023-08-10T01:50:11.355Z,14.00
2023-08-10T01:53:17.439Z,14.25
2023-08-10T01:56:20.446Z,12.50
2023-08-10T01:59:23.161Z,9.25
2023-08-10T02:02:25.600Z,12.25
2023-08-10T02:05:29.200Z,12.75
2023-08-10T02:08:32.245Z,15.50
2023-08-10T02:11:35.356Z,12.25
2023-08-10T02:14:37.811Z,12.75
2023-08-10T02:17:42.645Z,11.00
2023-08-10T02:20:45.320Z,9.75
2023-08-10T02:23:48.088Z,11.50
2023-08-10T02:26:50.564Z,13.00
2023-08-10T02:29:53.231Z,14.00
2023-08-10T02:32:56.924Z,13.00
2023-08-10T02:35:59.720Z,13.75
2023-08-10T02:39:04.851Z,13.50
2023-08-10T02:42:07.761Z,14.25
2023-08-10T02:45:10.995Z,13.25
2023-08-10T02:48:14.093Z,12.00
2023-08-10T02:51:16.850Z,13.00
2023-08-10T02:54:19.713Z,13.00
2023-08-10T02:57:22.156Z,12.75
2023-08-10T03:00:25.013Z,12.00
2023-08-10T03:03:28.254Z,12.75
2023-08-10T03:06:31.427Z,16.00
2023-08-10T03:09:34.384Z,14.00
2023-08-10T03:12:37.304Z,14.25
2023-08-10T03:15:40.059Z,13.00
2023-08-10T03:18:42.869Z,12.00
2023-08-10T03:21:45.363Z,13.00
2023-08-10T03:24:48.346Z,14.75
2023-08-10T03:27:51.719Z,14.00
2023-08-10T03:30:56.447Z,12.75
2023-08-10T03:33:59.155Z,12.00
2023-08-10T03:37:03.230Z,12.25
2023-08-10T03:40:06.570Z,12.25
2023-08-10T03:43:09.927Z,12.50
2023-08-10T03:46:13.574Z,13.75
2023-08-10T03:49:16.423Z,13.50
2023-08-10T03:52:19.666Z,12.00
2023-08-10T03:55:23.317Z,12.25
2023-08-10T03:58:26.831Z,12.50
2023-08-10T04:01:29.930Z,13.50
2023-08-10T04:04:32.318Z,13.00
2023-08-10T04:07:35.442Z,9.00
2023-08-10T04:10:38.241Z,13.25
2023-08-10T04:13:41.072Z,16.00
2023-08-10T04:16:43.541Z,0.00
2023-08-10T04:19:46.472Z,13.50
2023-08-10T04:22:48.862Z,12.75
2023-08-10T04:25:51.659Z,15.25
2023-08-10T04:28:54.171Z,14.50
2023-08-10T04:31:56.922Z,18.50
2023-08-10T04:34:59.410Z,17.00
2023-08-10T04:38:02.216Z,16.00
2023-08-10T04:41:04.706Z,17.50
2023-08-10T04:44:07.583Z,20.00
2023-08-10T04:47:10.052Z,20.50
2023-08-10T04:50:13.485Z,18.00
2023-08-10T04:53:15.968Z,19.25
2023-08-10T04:56:18.917Z,19.25
2023-08-10T04:59:21.386Z,18.00
2023-08-10T05:02:26.334Z,19.75
2023-08-10T05:05:29.031Z,20.50
2023-08-10T05:08:31.998Z,23.50
2023-08-10T05:11:34.536Z,24.00
2023-08-10T05:14:37.207Z,23.75
2023-08-10T05:17:39.811Z,24.00
2023-08-10T05:20:42.583Z,25.25
2023-08-10T05:23:45.303Z,23.75
2023-08-10T05:26:48.108Z,22.50
2023-08-10T05:29:50.632Z,25.25
2023-08-10T05:32:53.423Z,24.25
2023-08-10T05:35:56.025Z,23.50
2023-08-10T05:38:58.759Z,24.25
2023-08-10T05:42:01.280Z,23.75
2023-08-10T05:45:05.023Z,22.75
2023-08-10T05:48:12.260Z,25.25
2023-08-10T05:51:15.198Z,23.50
2023-08-10T05:54:17.638Z,26.50
2023-08-10T05:57:21.064Z,23.75
2023-08-10T06:00:23.651Z,26.25
2023-08-10T06:03:26.573Z,25.50
2023-08-10T06:06:30.504Z,25.00
2023-08-10T06:09:33.273Z,24.50
2023-08-10T06:12:36.375Z,27.75
2023-08-10T06:15:39.333Z,24.25
2023-08-10T06:18:41.811Z,24.00
2023-08-10T06:21:44.773Z,25.50
2023-08-10T06:24:48.238Z,24.00
2023-08-10T06:27:51.310Z,24.00
2023-08-10T06:30:53.928Z,24.75
2023-08-10T06:33:56.821Z,23.50
2023-08-10T06:36:59.415Z,22.25
2023-08-10T06:40:02.573Z,23.00
2023-08-10T06:43:05.210Z,22.00
2023-08-10T06:46:17.977Z,24.75
2023-08-10T06:49:22.737Z,22.00
2023-08-10T06:52:26.014Z,22.75
2023-08-10T06:55:30.453Z,22.00
2023-08-10T07:01:42.851Z,18.75
2023-08-10T07:04:47.223Z,18.25
2023-08-10T07:07:50.852Z,19.50
2023-08-10T07:10:53.659Z,17.75
2023-08-10T07:13:56.190Z,16.25
2023-08-10T07:16:59.047Z,19.00
2023-08-10T07:20:01.845Z,13.25
2023-08-10T07:23:04.878Z,15.75
2023-08-10T07:26:07.578Z,12.00
2023-08-10T07:29:10.510Z,15.00
2023-08-10T07:32:15.353Z,11.00
2023-08-10T07:35:19.370Z,13.00
2023-08-10T07:38:21.918Z,12.67
2023-08-10T07:41:24.856Z,12.00
2023-08-10T07:44:27.317Z,10.00
2023-08-10T07:47:30.108Z,11.00
2023-08-10T07:50:32.886Z,9.33
2023-08-10T07:53:35.771Z,11.67
2023-08-10T07:56:38.225Z,9.33
2023-08-10T07:59:41.244Z,8.00
2023-08-10T08:02:44.974Z,8.00
2023-08-10T08:05:48.063Z,8.00
2023-08-10T08:08:50.856Z,4.00
2023-08-10T08:11:53.721Z,5.67
2023-08-10T08:14:56.438Z,4.33
2023-08-10T08:18:39.251Z,5.00
2023-08-10T08:21:41.846Z,4.00
2023-08-10T08:24:44.694Z,3.67
2023-08-10T08:27:47.155Z,5.00
2023-08-10T08:30:53.287Z,5.00
2023-08-10T08:33:55.959Z,2.67
2023-08-10T08:36:58.767Z,4.67
2023-08-10T08:40:01.327Z,3.67
2023-08-10T08:43:05.474Z,2.67
2023-08-10T08:46:09.623Z,4.00
2023-08-10T08:49:13.129Z,3.67
2023-08-10T08:52:15.650Z,3.00
2023-08-10T08:55:18.540Z,3.00
2023-08-10T08:58:21.081Z,3.67
2023-08-10T09:01:24.038Z,2.67
2023-08-10T09:04:27.153Z,3.00
2023-08-10T09:07:31.264Z,4.00
2023-08-10T09:10:33.782Z,3.00
2023-08-10T09:13:36.736Z,1.33
2023-08-10T09:16:39.611Z,2.00
2023-08-10T09:19:43.657Z,2.67
2023-08-10T09:22:46.942Z,3.00
2023-08-10T09:25:49.999Z,2.67
2023-08-10T09:28:53.059Z,1.00
2023-08-10T09:31:58.223Z,1.33
2023-08-10T09:35:00.852Z,2.00
2023-08-10T09:38:05.269Z,2.00
2023-08-10T09:41:09.525Z,3.00
2023-08-10T09:44:12.302Z,2.00
2023-08-10T09:47:16.017Z,2.67
2023-08-10T09:50:19.017Z,2.00
2023-08-10T09:53:21.617Z,2.00
2023-08-10T09:56:24.395Z,2.00
2023-08-10T09:59:27.059Z,2.00
2023-08-10T10:02:29.924Z,3.00
2023-08-10T10:05:36.602Z,3.33
2023-08-10T10:08:40.568Z,2.00
2023-08-10T10:11:44.632Z,4.00
2023-08-10T10:14:48.890Z,3.33
2023-08-10T10:17:54.707Z,3.33
2023-08-10T10:20:58.237Z,2.33
2023-08-10T10:24:03.190Z,2.00
2023-08-10T10:27:10.055Z,1.25
2023-08-10T10:30:17.049Z,2.33
2023-08-10T10:33:19.753Z,3.00
2023-08-10T10:36:23.879Z,1.25
2023-08-10T10:39:27.317Z,2.25
2023-08-10T10:42:31.138Z,3.33
2023-08-10T10:45:41.655Z,2.75
2023-08-10T10:48:50.765Z,1.25
2023-08-10T10:51:56.363Z,2.25
2023-08-10T10:55:01.215Z,1.25
2023-08-10T10:58:05.454Z,1.50
2023-08-10T11:01:07.911Z,2.25
2023-08-10T11:04:12.476Z,1.25
2023-08-10T11:07:14.947Z,2.25
2023-08-10T11:10:20.971Z,1.25
2023-08-10T11:13:25.648Z,1.75
2023-08-10T11:16:28.512Z,1.50
2023-08-10T11:19:32.146Z,2.25
2023-08-10T11:22:38.623Z,1.25
2023-08-10T11:25:54.234Z,1.50
2023-08-10T11:28:57.105Z,2.00
2023-08-10T11:32:00.591Z,2.00
2023-08-10T11:35:04.522Z,1.25
2023-08-10T11:38:07.040Z,2.25
2023-08-10T11:41:09.872Z,2.25
2023-08-10T11:44:25.988Z,1.50
2023-08-10T11:48:00.671Z,2.25
2023-08-10T11:51:02.847Z,1.75
2023-08-10T11:54:13.423Z,2.25
2023-08-10T11:57:16.465Z,2.50
2023-08-10T12:00:31.766Z,2.25
2023-08-10T12:03:36.773Z,1.75
2023-08-10T12:06:42.006Z,2.50
2023-08-10T12:09:49.121Z,2.25
2023-08-10T12:12:59.427Z,2.25
2023-08-10T12:16:04.003Z,1.50
2023-08-10T12:19:07.460Z,2.00
2023-08-10T12:22:10.052Z,2.25
2023-08-10T12:25:12.877Z,2.00
2023-08-10T12:28:17.003Z,2.25
2023-08-10T12:31:20.771Z,2.25
2023-08-10T12:34:23.311Z,1.25
2023-08-10T12:37:26.516Z,2.75
2023-08-10T12:40:28.957Z,2.25
2023-08-10T12:43:31.810Z,1.75
2023-08-10T12:46:34.423Z,1.25
2023-08-10T12:49:37.302Z,0.25
2023-08-10T12:52:40.578Z,2.00
2023-08-10T12:55:43.425Z,2.00
2023-08-10T12:58:46.028Z,2.33
2023-08-10T13:01:49.061Z,2.33
2023-08-10T13:04:51.734Z,3.00
2023-08-10T13:07:54.609Z,1.25
2023-08-10T13:10:56.991Z,2.00
2023-08-10T13:13:59.889Z,2.25
2023-08-10T13:17:02.498Z,2.33
2023-08-10T13:20:06.525Z,2.25
2023-08-10T13:23:08.984Z,1.50
2023-08-10T13:26:11.744Z,1.50
2023-08-10T13:29:14.261Z,1.25
2023-08-10T13:32:17.787Z,1.25
2023-08-10T13:35:20.356Z,2.25
2023-08-10T13:38:23.307Z,2.25
2023-08-10T13:41:25.965Z,1.67
2023-08-10T13:44:29.056Z,2.33
2023-08-10T13:47:31.659Z,2.33
2023-08-10T13:50:35.990Z,2.33
2023-08-10T13:53:38.597Z,2.00
2023-08-10T13:57:19.752Z,1.33
2023-08-10T14:00:22.949Z,3.00
2023-08-10T14:03:26.067Z,1.33
2023-08-10T14:06:28.630Z,2.00
2023-08-10T14:09:32.962Z,2.67
2023-08-10T14:12:35.961Z,2.00
2023-08-10T14:15:38.799Z,2.00
2023-08-10T14:18:41.414Z,2.00
2023-08-10T14:21:44.822Z,3.00
2023-08-10T14:24:47.291Z,1.33
2023-08-10T14:27:50.177Z,2.33
2023-08-10T14:30:52.974Z,1.67
2023-08-10T14:33:56.046Z,2.00
2023-08-10T14:36:58.545Z,2.00
2023-08-10T14:40:01.637Z,2.00
2023-08-10T14:43:04.367Z,1.50
2023-08-10T14:46:09.013Z,2.00
2023-08-10T14:49:11.689Z,2.00
2023-08-10T14:52:15.226Z,2.00
2023-08-10T14:55:21.791Z,2.00
2023-08-10T14:58:25.359Z,2.67
2023-08-10T15:01:28.311Z,2.33
2023-08-10T15:04:31.944Z,2.00
2023-08-10T15:07:34.433Z,2.00
2023-08-10T15:10:37.244Z,3.00
2023-08-10T15:13:40.116Z,2.00
2023-08-10T15:16:42.981Z,2.00
2023-08-10T15:19:45.576Z,1.00
2023-08-10T15:22:48.790Z,1.00
2023-08-10T15:25:51.253Z,1.33
2023-08-10T15:28:54.229Z,1.67
2023-08-10T15:31:59.530Z,2.00
2023-08-10T15:35:02.717Z,2.00
2023-08-10T15:38:05.300Z,3.00
2023-08-10T15:41:08.643Z,2.00
2023-08-10T15:44:11.129Z,1.33
2023-08-10T15:47:13.979Z,2.00
2023-08-10T15:50:16.792Z,2.00
2023-08-10T15:53:19.853Z,1.67
2023-08-10T15:56:22.327Z,2.00
2023-08-10T15:59:25.186Z,2.00
2023-08-10T16:02:27.641Z,2.33
2023-08-10T16:05:30.397Z,2.00
2023-08-10T16:08:32.968Z,2.00
2023-08-10T16:11:36.488Z,2.00
2023-08-10T16:14:39.092Z,2.00
2023-08-10T16:17:42.118Z,3.00
2023-08-10T16:20:46.136Z,2.67
2023-08-10T16:23:49.303Z,2.67
2023-08-10T16:26:51.952Z,2.67
2023-08-10T16:29:54.965Z,3.00
2023-08-10T16:32:57.671Z,2.00
2023-08-10T16:36:00.650Z,2.00
2023-08-10T16:39:04.025Z,1.67
2023-08-10T16:42:09.025Z,1.67
2023-08-10T16:45:12.110Z,2.00
2023-08-10T16:48:14.962Z,1.67
2023-08-10T16:51:17.540Z,2.33
2023-08-10T16:54:20.421Z,2.67
2023-08-10T16:57:23.751Z,3.00
2023-08-10T17:00:28.316Z,2.67
2023-08-10T17:03:31.399Z,2.00
2023-08-10T17:10:14.344Z,2.33
2023-08-10T17:13:17.853Z,2.67
2023-08-10T17:16:20.439Z,3.33
2023-08-10T17:19:23.909Z,3.67
2023-08-10T17:22:26.918Z,4.33
2023-08-10T17:25:30.312Z,3.67
2023-08-10T17:28:33.544Z,5.00
2023-08-10T17:31:36.426Z,5.33
2023-08-10T17:34:39.500Z,6.00
2023-08-10T17:37:43.049Z,6.00
2023-08-10T17:40:46.585Z,5.00
2023-08-10T17:43:49.873Z,5.00
2023-08-10T17:46:52.984Z,5.00
2023-08-10T17:49:56.610Z,5.00
2023-08-10T17:52:59.608Z,7.00
2023-08-10T17:56:02.776Z,5.00
2023-08-10T17:59:05.550Z,4.67
2023-08-10T18:02:09.079Z,4.00
2023-08-10T18:05:12.670Z,5.00
2023-08-10T18:08:16.388Z,4.00
2023-08-10T18:11:20.101Z,4.67
2023-08-10T18:14:23.098Z,4.00
2023-08-10T18:17:26.016Z,5.33
2023-08-10T18:20:29.277Z,5.00
2023-08-10T18:23:31.996Z,5.00
2023-08-10T18:26:35.384Z,5.00
2023-08-10T18:29:39.643Z,6.00
2023-08-10T18:32:43.364Z,5.00
2023-08-10T18:35:46.670Z,4.00
2023-08-10T18:38:51.881Z,3.00
2023-08-10T18:41:55.076Z,5.00
2023-08-10T18:44:59.029Z,5.00
2023-08-10T18:48:05.306Z,5.50
2023-08-10T18:51:08.687Z,5.00
2023-08-10T18:54:12.154Z,5.00
2023-08-10T18:57:16.915Z,5.00
2023-08-10T19:00:19.751Z,5.00
2023-08-10T19:03:24.278Z,5.00
2023-08-10T19:06:29.089Z,4.00
2023-08-10T19:09:32.538Z,4.75
2023-08-10T19:12:35.937Z,4.50
2023-08-10T19:15:40.020Z,5.00
2023-08-10T19:18:46.265Z,6.00
2023-08-10T19:21:52.436Z,5.50
2023-08-10T19:24:55.779Z,5.00
2023-08-10T19:27:59.929Z,5.25
2023-08-10T19:31:07.596Z,5.75
2023-08-10T19:34:14.164Z,5.00
2023-08-10T19:37:18.557Z,5.00
2023-08-10T19:40:23.020Z,6.00
2023-08-10T19:43:25.832Z,6.00
2023-08-10T19:46:29.096Z,5.25
2023-08-10T19:49:32.200Z,6.00
2023-08-10T19:52:36.447Z,5.00
2023-08-10T19:55:40.215Z,6.75
2023-08-10T19:58:44.815Z,6.25
2023-08-10T20:01:48.457Z,6.00
2023-08-10T20:04:54.883Z,7.00
2023-08-10T20:07:57.437Z,9.00
2023-08-10T20:11:01.781Z,9.00
2023-08-10T20:14:05.109Z,3.50
2023-08-10T20:17:08.770Z,10.00
2023-08-10T20:20:14.782Z,8.00
2023-08-10T20:23:20.303Z,7.00
2023-08-10T20:26:23.597Z,7.00
2023-08-10T20:29:27.260Z,8.00
2023-08-10T20:32:30.215Z,7.00
2023-08-10T20:35:34.086Z,7.25
2023-08-10T20:38:37.067Z,7.25
2023-08-10T20:41:40.838Z,7.00
2023-08-10T20:44:43.518Z,8.25
2023-08-10T20:47:47.343Z,8.00
2023-08-10T20:50:50.964Z,7.75
2023-08-10T20:53:54.332Z,7.00
2023-08-10T20:56:57.553Z,8.50
2023-08-10T21:00:01.175Z,7.75
2023-08-10T21:03:05.555Z,6.75
2023-08-10T21:06:08.978Z,7.00
2023-08-10T21:09:11.691Z,7.00
2023-08-10T21:12:14.595Z,7.75
2023-08-10T21:15:17.042Z,8.25
2023-08-10T21:18:19.981Z,7.25
2023-08-10T21:21:22.561Z,9.75
2023-08-10T21:24:25.345Z,8.00
2023-08-10T21:27:28.011Z,7.75
2023-08-10T21:30:30.828Z,8.00
2023-08-10T21:33:33.491Z,7.00
2023-08-10T21:36:36.395Z,8.75
2023-08-10T21:39:39.445Z,10.00
2023-08-10T21:42:42.370Z,9.00
2023-08-10T21:45:45.035Z,9.50
2023-08-10T21:48:47.879Z,8.75
2023-08-10T21:51:50.463Z,9.00
2023-08-10T21:54:53.447Z,10.75
2023-08-10T21:57:56.069Z,9.00
2023-08-10T22:00:59.193Z,9.00
2023-08-10T22:04:01.807Z,9.00
2023-08-10T22:07:04.843Z,8.50
2023-08-10T22:10:07.963Z,8.25
2023-08-10T22:13:10.827Z,9.50
2023-08-10T22:16:13.414Z,9.50
2023-08-10T22:19:16.453Z,9.00
2023-08-10T22:22:19.073Z,9.25
2023-08-10T22:25:22.827Z,8.00
2023-08-10T22:28:25.274Z,8.50
2023-08-10T22:31:28.547Z,9.00
2023-08-10T22:34:31.389Z,9.50
2023-08-10T22:37:34.260Z,9.75
2023-08-10T22:40:36.868Z,9.00
2023-08-10T22:43:41.221Z,9.50
2023-08-10T22:46:43.681Z,9.00
2023-08-10T22:49:47.516Z,7.25
2023-08-10T22:52:50.051Z,8.00
2023-08-10T22:55:53.219Z,9.00
2023-08-10T22:58:56.568Z,8.25
2023-08-10T23:01:59.438Z,9.00
2023-08-10T23:05:02.149Z,10.00
2023-08-10T23:08:05.221Z,8.50
2023-08-10T23:11:08.041Z,8.75
2023-08-10T23:14:12.390Z,8.00
2023-08-10T23:17:15.798Z,9.25
2023-08-10T23:20:18.938Z,8.75
2023-08-10T23:23:21.342Z,9.00
2023-08-10T23:26:24.590Z,9.25
2023-08-10T23:29:27.005Z,8.00
2023-08-10T23:32:29.924Z,9.00
2023-08-10T23:35:32.573Z,10.00
2023-08-10T23:38:35.510Z,11.00
2023-08-10T23:41:38.097Z,9.00
2023-08-10T23:44:41.452Z,8.25
2023-08-10T23:47:44.289Z,9.00
2023-08-10T23:50:47.139Z,9.00
2023-08-10T23:53:49.544Z,10.25
2023-08-10T23:56:52.380Z,10.00
2023-08-10T23:59:54.846Z,10.75
